createdAt,value
2018-05-24T00:01:15.329Z,6.00
2018-05-24T00:03:42.837Z,5.77
2018-05-24T00:06:10.331Z,6.43
2018-05-24T00:08:37.875Z,5.70
2018-05-24T00:11:05.393Z,5.47
2018-05-24T00:13:32.951Z,5.90
2018-05-24T00:16:00.460Z,5.70
2018-05-24T00:18:27.947Z,6.10
2018-05-24T00:20:55.554Z,5.50
2018-05-24T00:23:23.089Z,5.63
2018-05-24T00:25:50.683Z,5.73
2018-05-24T00:28:18.196Z,5.57
2018-05-24T00:30:45.753Z,6.03
2018-05-24T00:33:13.310Z,6.13
2018-05-24T00:35:40.844Z,6.17
2018-05-24T00:38:08.337Z,5.60
2018-05-24T00:40:36.698Z,5.57
2018-05-24T00:43:04.198Z,6.20
2018-05-24T00:45:31.699Z,5.83
2018-05-24T00:47:59.290Z,5.50
2018-05-24T00:50:26.798Z,5.90
2018-05-24T00:52:54.315Z,5.60
2018-05-24T00:55:33.730Z,5.93
2018-05-24T00:58:01.310Z,5.63
2018-05-24T01:00:30.320Z,5.57
2018-05-24T01:02:57.802Z,5.37
2018-05-24T01:05:26.063Z,5.27
2018-05-24T01:07:53.624Z,5.90
2018-05-24T01:10:21.124Z,5.63
2018-05-24T01:12:49.392Z,5.67
2018-05-24T01:15:17.650Z,5.37
2018-05-24T01:17:45.153Z,5.87
2018-05-24T01:20:13.412Z,5.50
2018-05-24T01:22:40.966Z,5.43
2018-05-24T01:25:08.464Z,5.37
2018-05-24T01:27:36.814Z,5.77
2018-05-24T01:30:04.328Z,5.97
2018-05-24T01:32:31.836Z,6.77
2018-05-24T01:34:59.317Z,5.60
2018-05-24T01:37:38.741Z,5.90
2018-05-24T01:40:06.229Z,5.60
2018-05-24T01:42:34.496Z,5.80
2018-05-24T01:45:02.005Z,6.20
2018-05-24T01:47:29.490Z,6.20
2018-05-24T01:49:57.008Z,5.80
2018-05-24T01:52:25.368Z,6.23
2018-05-24T01:54:52.849Z,5.63
2018-05-24T01:57:21.093Z,6.00
2018-05-24T01:59:48.590Z,5.93
2018-05-24T02:02:16.096Z,6.10
2018-05-24T02:04:43.599Z,5.97
2018-05-24T02:07:11.086Z,5.80
2018-05-24T02:09:39.421Z,5.83
2018-05-24T02:12:06.833Z,5.60
2018-05-24T02:14:35.197Z,6.13
2018-05-24T02:17:03.457Z,5.77
2018-05-24T02:19:31.036Z,5.83
2018-05-24T02:21:58.611Z,6.37
2018-05-24T02:24:26.141Z,6.47
2018-05-24T02:26:53.661Z,6.47
2018-05-24T02:29:21.941Z,5.27
2018-05-24T02:31:49.496Z,6.00
2018-05-24T02:34:16.999Z,6.20
2018-05-24T02:36:44.506Z,5.80
2018-05-24T02:39:12.088Z,5.63
2018-05-24T02:41:39.593Z,6.40
2018-05-24T02:44:07.093Z,6.00
2018-05-24T02:46:34.678Z,6.10
2018-05-24T02:49:02.165Z,6.57
2018-05-24T02:51:30.446Z,5.70
2018-05-24T02:53:58.715Z,5.83
2018-05-24T02:56:26.217Z,6.30
2018-05-24T02:58:53.692Z,5.73
2018-05-24T03:01:21.244Z,5.97
2018-05-24T03:03:48.747Z,6.10
2018-05-24T03:06:16.230Z,6.13
2018-05-24T03:08:44.487Z,6.23
2018-05-24T03:11:12.090Z,6.07
2018-05-24T03:13:39.592Z,6.43
2018-05-24T03:16:07.206Z,6.50
2018-05-24T03:18:34.712Z,6.50
2018-05-24T03:21:03.065Z,6.37
2018-05-24T03:23:30.628Z,7.03
2018-05-24T03:25:58.139Z,6.90
2018-05-24T03:28:25.654Z,6.67
2018-05-24T03:30:53.224Z,6.43
2018-05-24T03:33:20.782Z,6.60
2018-05-24T03:35:48.346Z,6.67
2018-05-24T03:38:15.855Z,6.93
2018-05-24T03:40:43.361Z,7.33
2018-05-24T03:43:10.850Z,6.97
2018-05-24T03:45:38.415Z,6.63
2018-05-24T03:48:05.914Z,6.60
2018-05-24T03:50:33.433Z,6.77
2018-05-24T03:53:00.934Z,6.60
2018-05-24T03:55:29.289Z,6.87
2018-05-24T03:57:56.780Z,7.13
2018-05-24T04:00:37.048Z,7.23
2018-05-24T04:03:16.541Z,7.23
2018-05-24T04:05:44.119Z,7.60
2018-05-24T04:08:11.540Z,7.10
2018-05-24T04:10:39.136Z,7.30
2018-05-24T04:13:06.630Z,7.60
2018-05-24T04:15:34.996Z,7.33
2018-05-24T04:18:03.271Z,6.70
2018-05-24T04:20:30.772Z,7.27
2018-05-24T04:22:58.270Z,6.33
2018-05-24T04:25:25.869Z,6.60
2018-05-24T04:27:53.363Z,14.27
2018-05-24T04:30:21.621Z,6.40
2018-05-24T04:32:49.177Z,6.30
2018-05-24T04:35:16.690Z,5.87
2018-05-24T04:37:44.183Z,6.20
2018-05-24T04:40:11.781Z,6.30
2018-05-24T04:42:39.274Z,6.93
2018-05-24T04:45:06.797Z,6.03
2018-05-24T04:47:34.309Z,6.93
2018-05-24T04:50:01.799Z,7.03
2018-05-24T04:52:29.392Z,7.07
2018-05-24T04:54:56.884Z,8.10
2018-05-24T04:57:25.144Z,7.57
2018-05-24T04:59:52.654Z,6.50
2018-05-24T05:02:20.153Z,6.50
2018-05-24T05:04:47.749Z,6.30
2018-05-24T05:07:15.243Z,6.90
2018-05-24T05:09:42.776Z,6.07
2018-05-24T05:12:10.290Z,6.70
2018-05-24T05:14:37.844Z,10.07
2018-05-24T05:17:05.318Z,7.90
2018-05-24T05:19:32.847Z,9.17
2018-05-24T05:22:00.398Z,6.87
2018-05-24T05:24:27.950Z,12.57
2018-05-24T05:26:55.441Z,7.47
2018-05-24T05:29:23.706Z,14.40
2018-05-24T05:31:51.968Z,6.40
2018-05-24T05:34:19.462Z,6.90
2018-05-24T05:36:47.024Z,8.40
2018-05-24T05:39:14.588Z,6.23
2018-05-24T05:41:42.107Z,8.30
2018-05-24T05:44:09.608Z,6.10
2018-05-24T05:46:37.102Z,11.10
2018-05-24T05:49:05.475Z,7.73
2018-05-24T05:51:33.836Z,7.07
2018-05-24T05:54:01.337Z,7.67
2018-05-24T05:56:29.689Z,5.60
2018-05-24T05:58:57.186Z,6.43
2018-05-24T06:01:24.700Z,8.57
2018-05-24T06:03:52.293Z,5.70
2018-05-24T06:06:19.797Z,8.20
2018-05-24T06:08:47.289Z,5.57
2018-05-24T06:11:14.911Z,5.17
2018-05-24T06:13:43.275Z,6.13
2018-05-24T06:16:10.783Z,5.73
2018-05-24T06:18:38.283Z,6.37
2018-05-24T06:21:05.765Z,6.27
2018-05-24T06:23:33.264Z,5.53
2018-05-24T06:26:00.783Z,13.00
2018-05-24T06:28:28.300Z,9.50
2018-05-24T06:30:55.819Z,5.37
2018-05-24T06:33:23.328Z,6.80
2018-05-24T06:35:50.826Z,5.27
2018-05-24T06:38:18.352Z,6.40
2018-05-24T06:40:45.854Z,5.00
2018-05-24T06:43:13.437Z,5.50
2018-05-24T06:45:41.017Z,5.53
2018-05-24T06:48:08.569Z,5.20
2018-05-24T06:50:36.084Z,6.47
2018-05-24T06:53:03.570Z,7.00
2018-05-24T06:55:31.170Z,4.70
2018-05-24T06:57:58.744Z,5.17
2018-05-24T07:00:26.240Z,6.93
2018-05-24T07:02:53.766Z,15.77
2018-05-24T07:05:21.332Z,5.50
2018-05-24T07:07:48.826Z,7.07
2018-05-24T07:10:17.078Z,5.67
2018-05-24T07:12:44.569Z,6.07
2018-05-24T07:15:12.846Z,5.23
2018-05-24T07:17:41.099Z,9.27
2018-05-24T07:20:09.376Z,9.37
2018-05-24T07:22:36.863Z,8.57
2018-05-24T07:25:05.138Z,5.73
2018-05-24T07:27:32.647Z,5.97
2018-05-24T07:30:00.157Z,6.10
2018-05-24T07:32:27.658Z,5.10
2018-05-24T07:34:56.009Z,10.47
2018-05-24T07:37:23.576Z,7.90
2018-05-24T07:39:51.099Z,7.30
2018-05-24T07:42:18.613Z,5.70
2018-05-24T07:44:46.190Z,6.00
2018-05-24T07:47:14.437Z,6.23
2018-05-24T07:49:41.929Z,6.80
2018-05-24T07:52:10.207Z,5.67
2018-05-24T07:54:37.720Z,13.90
2018-05-24T07:57:05.326Z,7.70
2018-05-24T07:59:32.835Z,14.13
2018-05-24T08:02:00.371Z,10.90
2018-05-24T08:04:28.661Z,17.40
2018-05-24T08:06:57.027Z,25.90
2018-05-24T08:09:24.527Z,23.77
2018-05-24T08:11:52.027Z,27.83
2018-05-24T08:14:19.609Z,30.47
2018-05-24T08:16:47.177Z,32.17
2018-05-24T08:19:14.752Z,32.77
2018-05-24T08:21:42.255Z,27.67
2018-05-24T08:24:09.777Z,32.00
2018-05-24T08:26:37.373Z,32.50
2018-05-24T08:29:05.791Z,37.53
2018-05-24T08:31:34.029Z,32.07
2018-05-24T08:34:02.291Z,38.17
2018-05-24T08:36:29.807Z,42.37
2018-05-24T08:38:57.302Z,41.60
2018-05-24T08:41:24.895Z,40.00
2018-05-24T08:43:52.403Z,44.27
2018-05-24T08:46:19.909Z,40.67
2018-05-24T08:48:47.411Z,41.50
2018-05-24T08:51:15.678Z,41.63
2018-05-24T08:53:43.201Z,36.27
2018-05-24T08:56:10.825Z,35.30
2018-05-24T08:58:39.086Z,35.40
2018-05-24T09:01:06.644Z,36.27
2018-05-24T09:03:34.145Z,48.83
2018-05-24T09:06:01.669Z,45.33
2018-05-24T09:08:29.203Z,30.57
2018-05-24T09:10:56.805Z,40.63
2018-05-24T09:13:24.303Z,36.73
2018-05-24T09:15:52.667Z,33.00
2018-05-24T09:18:20.187Z,29.33
2018-05-24T09:20:47.683Z,30.47
2018-05-24T09:23:15.266Z,33.10
2018-05-24T09:25:43.525Z,29.20
2018-05-24T09:28:11.101Z,27.87
2018-05-24T09:30:38.672Z,32.20
2018-05-24T09:33:06.235Z,31.57
2018-05-24T09:35:33.793Z,31.50
2018-05-24T09:38:01.364Z,29.27
2018-05-24T09:40:28.917Z,29.83
2018-05-24T09:42:58.030Z,27.90
2018-05-24T09:45:25.545Z,22.03
2018-05-24T09:47:53.049Z,30.47
2018-05-24T09:50:20.540Z,23.77
2018-05-24T09:52:48.913Z,21.37
2018-05-24T09:55:17.301Z,27.00
2018-05-24T09:57:44.863Z,27.20
2018-05-24T10:00:12.361Z,21.97
2018-05-24T10:02:39.877Z,25.13
2018-05-24T10:05:07.403Z,25.27
2018-05-24T10:07:35.009Z,19.50
2018-05-24T10:10:02.509Z,20.07
2018-05-24T10:12:30.777Z,22.27
2018-05-24T10:14:58.274Z,22.63
2018-05-24T10:17:26.763Z,26.03
2018-05-24T10:19:54.379Z,19.27
2018-05-24T10:22:21.886Z,16.90
2018-05-24T10:24:49.402Z,20.00
2018-05-24T10:27:16.901Z,30.63
2018-05-24T10:29:45.253Z,19.07
2018-05-24T10:32:12.773Z,20.43
2018-05-24T10:34:40.387Z,26.40
2018-05-24T10:37:07.879Z,21.70
2018-05-24T10:39:36.230Z,25.03
2018-05-24T10:42:04.523Z,21.90
2018-05-24T10:44:32.817Z,22.77
2018-05-24T10:47:01.091Z,25.53
2018-05-24T10:49:28.595Z,22.40
2018-05-24T10:51:56.121Z,19.33
2018-05-24T10:54:23.614Z,19.93
2018-05-24T10:56:51.147Z,19.30
2018-05-24T10:59:18.658Z,14.83
2018-05-24T11:01:46.169Z,24.30
2018-05-24T11:04:14.440Z,20.50
2018-05-24T11:06:42.029Z,17.83
2018-05-24T11:09:09.541Z,14.83
2018-05-24T11:11:37.137Z,13.07
2018-05-24T11:14:04.625Z,11.57
2018-05-24T11:16:32.063Z,16.83
2018-05-24T11:18:59.627Z,20.03
2018-05-24T11:21:27.155Z,13.50
2018-05-24T11:23:54.685Z,15.93
2018-05-24T11:26:22.175Z,13.30
2018-05-24T11:28:49.688Z,15.17
2018-05-24T11:31:17.201Z,15.27
2018-05-24T11:33:45.553Z,13.63
2018-05-24T11:36:13.113Z,16.17
2018-05-24T11:38:40.688Z,21.73
2018-05-24T11:41:08.257Z,17.17
2018-05-24T11:43:35.781Z,14.27
2018-05-24T11:46:03.305Z,14.40
2018-05-24T11:48:31.662Z,17.97
2018-05-24T11:50:59.231Z,14.10
2018-05-24T11:53:26.748Z,17.00
2018-05-24T11:55:54.259Z,33.63
2018-05-24T11:58:21.837Z,25.20
2018-05-24T12:00:49.383Z,22.50
2018-05-24T12:03:16.944Z,35.27
2018-05-24T12:05:44.447Z,20.27
2018-05-24T12:08:12.719Z,23.40
2018-05-24T12:10:40.997Z,23.07
2018-05-24T12:13:09.260Z,24.30
2018-05-24T12:15:36.769Z,17.13
2018-05-24T12:18:04.304Z,16.33
2018-05-24T12:20:31.809Z,21.53
2018-05-24T12:22:59.427Z,15.87
2018-05-24T12:25:26.945Z,15.27
2018-05-24T12:27:54.453Z,17.47
2018-05-24T12:30:22.047Z,12.67
2018-05-24T12:32:50.311Z,13.43
2018-05-24T12:35:17.980Z,10.43
2018-05-24T12:37:45.461Z,15.03
2018-05-24T12:40:13.819Z,21.73
2018-05-24T12:42:41.349Z,20.23
2018-05-24T12:45:08.848Z,21.43
2018-05-24T12:47:36.387Z,12.70
2018-05-24T12:50:03.986Z,15.07
2018-05-24T12:52:31.559Z,20.50
2018-05-24T12:54:59.070Z,10.70
2018-05-24T12:57:26.575Z,12.03
2018-05-24T12:59:54.099Z,11.23
2018-05-24T13:02:21.603Z,30.50
2018-05-24T13:04:49.113Z,94.13
2018-05-24T13:07:16.629Z,16.13
2018-05-24T13:09:44.276Z,16.20
2018-05-24T13:12:12.533Z,20.97
2018-05-24T13:14:40.030Z,22.37
2018-05-24T13:17:07.676Z,16.43
2018-05-24T13:19:35.079Z,16.93
2018-05-24T13:22:02.646Z,11.47
2018-05-24T13:24:30.257Z,12.30
2018-05-24T13:26:57.694Z,13.97
2018-05-24T13:29:26.061Z,11.37
2018-05-24T13:31:53.596Z,11.10
2018-05-24T13:34:21.095Z,8.87
2018-05-24T13:36:48.764Z,10.60
2018-05-24T13:39:16.266Z,13.93
2018-05-24T13:41:48.046Z,14.47
2018-05-24T13:44:17.982Z,11.60
2018-05-24T13:46:45.479Z,9.90
2018-05-24T13:49:13.766Z,39.23
2018-05-24T13:51:42.032Z,17.13
2018-05-24T13:54:09.606Z,14.17
2018-05-24T13:56:37.129Z,18.13
2018-05-24T13:59:04.632Z,16.00
2018-05-24T14:01:32.166Z,12.23
2018-05-24T14:03:59.654Z,13.33
2018-05-24T14:06:27.188Z,10.67
2018-05-24T14:08:54.681Z,12.00
2018-05-24T14:11:23.072Z,13.43
2018-05-24T14:13:50.615Z,10.63
2018-05-24T14:16:18.125Z,10.37
2018-05-24T14:18:46.482Z,10.80
2018-05-24T14:21:13.980Z,10.60
2018-05-24T14:23:42.322Z,9.47
2018-05-24T14:26:09.947Z,9.87
2018-05-24T14:28:37.456Z,9.67
2018-05-24T14:31:05.028Z,9.43
2018-05-24T14:33:32.535Z,10.57
2018-05-24T14:36:00.036Z,9.57
2018-05-24T14:38:27.572Z,10.13
2018-05-24T14:40:55.102Z,8.87
2018-05-24T14:43:22.589Z,9.43
2018-05-24T14:45:50.108Z,9.40
2018-05-24T14:48:17.602Z,9.37
2018-05-24T14:50:45.962Z,9.70
2018-05-24T14:53:13.529Z,8.57
2018-05-24T14:55:41.036Z,10.40
2018-05-24T14:58:08.526Z,8.83
2018-05-24T15:00:36.133Z,15.63
2018-05-24T15:03:03.689Z,9.20
2018-05-24T15:05:31.313Z,9.77
2018-05-24T15:07:59.636Z,16.90
2018-05-24T15:10:27.154Z,9.97
2018-05-24T15:12:54.663Z,10.87
2018-05-24T15:15:22.212Z,15.87
2018-05-24T15:17:49.716Z,17.83
2018-05-24T15:20:17.264Z,10.70
2018-05-24T15:22:44.840Z,10.37
2018-05-24T15:25:12.340Z,15.67
2018-05-24T15:27:39.844Z,12.13
2018-05-24T15:30:07.434Z,8.37
2018-05-24T15:32:35.018Z,7.40
2018-05-24T15:35:03.270Z,7.30
2018-05-24T15:37:30.778Z,7.17
2018-05-24T15:39:58.304Z,10.23
2018-05-24T15:42:26.580Z,7.03
2018-05-24T15:44:54.175Z,10.47
2018-05-24T15:47:22.432Z,6.93
2018-05-24T15:49:50.698Z,7.43
2018-05-24T15:52:18.286Z,11.03
2018-05-24T15:54:45.798Z,7.40
2018-05-24T15:57:13.298Z,10.77
2018-05-24T15:59:40.878Z,11.77
2018-05-24T16:02:08.384Z,8.67
2018-05-24T16:04:35.901Z,10.70
2018-05-24T16:07:03.518Z,9.10
2018-05-24T16:09:31.058Z,12.00
2018-05-24T16:11:59.428Z,6.13
2018-05-24T16:14:27.016Z,11.70
2018-05-24T16:16:55.386Z,5.87
2018-05-24T16:19:23.784Z,7.90
2018-05-24T16:21:52.098Z,9.43
2018-05-24T16:24:20.409Z,6.17
2018-05-24T16:26:47.986Z,9.93
2018-05-24T16:29:15.499Z,9.47
2018-05-24T16:31:42.997Z,7.10
2018-05-24T16:34:10.614Z,10.03
2018-05-24T16:36:38.879Z,11.63
2018-05-24T16:39:06.375Z,11.30
2018-05-24T16:41:33.931Z,11.77
2018-05-24T16:44:01.460Z,14.53
2018-05-24T16:46:29.049Z,8.13
2018-05-24T16:48:56.618Z,9.37
2018-05-24T16:51:24.881Z,6.03
2018-05-24T16:53:52.377Z,6.93
2018-05-24T16:56:20.727Z,7.63
2018-05-24T16:58:48.298Z,9.93
2018-05-24T17:01:15.843Z,6.60
2018-05-24T17:03:43.334Z,7.13
2018-05-24T17:06:10.890Z,9.50
2018-05-24T17:08:38.465Z,7.17
2018-05-24T17:11:06.034Z,8.70
2018-05-24T17:13:34.304Z,7.07
2018-05-24T17:16:01.828Z,9.73
2018-05-24T17:18:29.340Z,10.23
2018-05-24T17:20:56.853Z,11.30
2018-05-24T17:23:24.468Z,11.37
2018-05-24T17:25:51.994Z,17.93
2018-05-24T17:28:19.515Z,19.27
2018-05-24T17:30:47.065Z,11.27
2018-05-24T17:33:14.571Z,12.93
2018-05-24T17:35:42.085Z,12.80
2018-05-24T17:38:09.589Z,14.30
2018-05-24T17:40:37.087Z,12.27
2018-05-24T17:43:04.597Z,16.30
2018-05-24T17:45:32.852Z,12.67
2018-05-24T17:48:00.384Z,10.73
2018-05-24T17:50:27.910Z,9.73
2018-05-24T17:52:56.289Z,9.77
2018-05-24T17:55:24.557Z,14.87
2018-05-24T17:57:52.066Z,10.03
2018-05-24T18:00:19.734Z,10.10
2018-05-24T18:02:47.274Z,10.07
2018-05-24T18:05:15.642Z,10.20
2018-05-24T18:07:43.222Z,13.73
2018-05-24T18:10:10.715Z,17.57
2018-05-24T18:12:38.342Z,9.30
2018-05-24T18:15:05.855Z,13.80
2018-05-24T18:17:33.371Z,11.60
2018-05-24T18:20:01.653Z,14.80
2018-05-24T18:22:29.238Z,12.40
2018-05-24T18:24:57.608Z,13.93
2018-05-24T18:27:25.211Z,12.43
2018-05-24T18:29:52.747Z,11.70
2018-05-24T18:32:21.037Z,14.40
2018-05-24T18:34:49.437Z,12.27
2018-05-24T18:37:17.749Z,10.47
2018-05-24T18:39:45.401Z,10.70
2018-05-24T18:42:12.940Z,10.20
2018-05-24T18:44:41.317Z,10.53
2018-05-24T18:47:09.764Z,10.20
2018-05-24T18:49:37.361Z,10.27
2018-05-24T18:52:04.886Z,9.53
2018-05-24T18:54:32.481Z,9.53
2018-05-24T18:57:00.058Z,9.77
2018-05-24T18:59:27.595Z,10.33
2018-05-24T19:01:55.139Z,10.30
2018-05-24T19:04:22.653Z,9.80
2018-05-24T19:06:50.173Z,10.90
2018-05-24T19:09:17.693Z,9.70
2018-05-24T19:11:45.985Z,10.20
2018-05-24T19:14:14.303Z,11.93
2018-05-24T19:16:42.569Z,10.53
2018-05-24T19:19:10.094Z,9.87
2018-05-24T19:21:37.632Z,9.97
2018-05-24T19:24:05.533Z,11.37
2018-05-24T19:26:33.112Z,9.93
2018-05-24T19:29:01.404Z,9.97
2018-05-24T19:31:29.706Z,10.10
2018-05-24T19:33:57.211Z,10.00
2018-05-24T19:36:24.819Z,9.50
2018-05-24T19:38:53.192Z,15.17
2018-05-24T19:41:21.481Z,12.10
2018-05-24T19:43:49.812Z,12.13
2018-05-24T19:46:17.339Z,12.10
2018-05-24T19:48:45.764Z,10.77
2018-05-24T19:51:13.317Z,10.50
2018-05-24T19:53:40.832Z,11.50
2018-05-24T19:56:09.228Z,10.17
2018-05-24T19:58:37.608Z,10.90
2018-05-24T20:01:05.924Z,10.40
2018-05-24T20:03:33.591Z,10.93
2018-05-24T20:06:01.122Z,9.63
2018-05-24T20:08:29.402Z,10.03
2018-05-24T20:10:57.668Z,9.57
2018-05-24T20:13:25.202Z,10.53
2018-05-24T20:15:52.734Z,13.60
2018-05-24T20:18:21.786Z,10.67
2018-05-24T20:20:49.294Z,17.97
2018-05-24T20:23:17.656Z,13.03
2018-05-24T20:25:46.013Z,12.00
2018-05-24T20:28:13.540Z,13.53
2018-05-24T20:30:41.069Z,20.73
2018-05-24T20:33:08.581Z,12.13
2018-05-24T20:35:36.141Z,12.03
2018-05-24T20:38:03.611Z,12.23
2018-05-24T20:40:31.127Z,11.13
2018-05-24T20:42:58.631Z,13.20
2018-05-24T20:45:26.139Z,17.10
2018-05-24T20:47:53.645Z,11.77
2018-05-24T20:50:21.175Z,15.73
2018-05-24T20:52:48.755Z,11.17
2018-05-24T20:55:16.252Z,17.40
2018-05-24T20:57:43.747Z,11.43
2018-05-24T21:00:12.025Z,11.00
2018-05-24T21:02:39.526Z,11.30
2018-05-24T21:05:07.035Z,13.77
2018-05-24T21:07:34.547Z,12.40
2018-05-24T21:10:02.121Z,10.87
2018-05-24T21:12:29.678Z,13.13
2018-05-24T21:14:57.203Z,11.97
2018-05-24T21:17:24.715Z,12.60
2018-05-24T21:19:52.212Z,11.47
2018-05-24T21:22:19.723Z,11.63
2018-05-24T21:24:47.213Z,11.27
2018-05-24T21:27:15.496Z,12.13
2018-05-24T21:29:43.050Z,11.60
2018-05-24T21:32:12.149Z,11.10
2018-05-24T21:34:39.715Z,13.50
2018-05-24T21:37:07.213Z,10.80
2018-05-24T21:39:35.497Z,10.80
2018-05-24T21:42:03.783Z,9.90
2018-05-24T21:44:31.281Z,10.40
2018-05-24T21:46:58.883Z,10.53
2018-05-24T21:49:26.447Z,10.20
2018-05-24T21:51:53.961Z,10.63
2018-05-24T21:54:21.476Z,10.30
2018-05-24T21:56:49.024Z,9.77
2018-05-24T21:59:16.609Z,10.90
2018-05-24T22:01:44.119Z,9.70
2018-05-24T22:04:11.607Z,10.50
2018-05-24T22:06:39.200Z,9.77
2018-05-24T22:09:06.694Z,10.40
2018-05-24T22:11:34.192Z,9.50
2018-05-24T22:14:01.699Z,9.90
2018-05-24T22:16:29.270Z,10.43
2018-05-24T22:18:56.796Z,9.23
2018-05-24T22:21:24.287Z,9.10
2018-05-24T22:23:51.791Z,9.30
2018-05-24T22:26:19.280Z,9.53
2018-05-24T22:28:46.768Z,9.20
2018-05-24T22:31:14.346Z,9.73
2018-05-24T22:33:41.905Z,10.27
2018-05-24T22:36:09.570Z,9.17
2018-05-24T22:38:37.192Z,8.73
2018-05-24T22:41:04.689Z,9.70
2018-05-24T22:43:32.268Z,9.30
2018-05-24T22:45:59.838Z,9.07
2018-05-24T22:48:27.408Z,9.53
2018-05-24T22:50:54.900Z,9.20
2018-05-24T22:53:23.165Z,9.43
2018-05-24T22:55:50.762Z,8.67
2018-05-24T22:58:18.318Z,9.00
2018-05-24T23:00:46.616Z,8.80
2018-05-24T23:03:14.151Z,9.03
2018-05-24T23:05:42.414Z,8.60
2018-05-24T23:08:09.922Z,8.80
2018-05-24T23:10:37.424Z,8.03
2018-05-24T23:13:04.912Z,8.60
2018-05-24T23:15:32.482Z,8.40
2018-05-24T23:18:00.059Z,8.93
2018-05-24T23:20:28.420Z,9.13
2018-05-24T23:22:55.902Z,7.97
2018-05-24T23:25:24.164Z,8.50
2018-05-24T23:27:51.664Z,8.37
2018-05-24T23:30:20.014Z,8.23
2018-05-24T23:32:47.532Z,8.30
2018-05-24T23:35:15.016Z,8.23
2018-05-24T23:37:42.561Z,8.50
2018-05-24T23:40:10.100Z,8.23
2018-05-24T23:42:37.637Z,7.97
2018-05-24T23:45:05.213Z,9.13
2018-05-24T23:47:32.710Z,8.13
2018-05-24T23:50:00.228Z,8.40
2018-05-24T23:52:27.802Z,8.50
2018-05-24T23:54:55.370Z,8.07
2018-05-24T23:57:22.882Z,8.30
2018-05-24T23:59:50.401Z,8.00
